<?xml version="1.0" encoding="UTF-8" standalone="no" ?>
<gpx xmlns="http://www.topografix.com/GPX/1/1" xmlns:xsi="http://www.w3.org/2001/XMLSchema-instance" xsi:schemaLocation="http://www.topografix.com/GPX/1/1 http://www.topografix.com/GPX/1/1/gpx.xsd" version="1.1" creator="VisuGPX - https://www.visugpx.com">
  <metadata>
    <name>failed hérisson</name>
    <desc><![CDATA[une belle rando foireuse !! :) (à refaire)]]></desc>
  </metadata>
  <trk>
    <name><![CDATA[ACTIVE LOG 004]]></name>
    <trkseg>
      <trkpt lat="46.60787" lon="5.90318">
        <ele>279.40026855469</ele>
        <time>2012-07-18T09:05:34Z</time>
      </trkpt>
      <trkpt lat="46.60735" lon="5.90365">
        <ele>586.06079101562</ele>
        <time>2012-07-18T09:05:57Z</time>
      </trkpt>
      <trkpt lat="46.60712" lon="5.90389">
        <ele>754.29174804688</ele>
        <time>2012-07-18T09:06:03Z</time>
      </trkpt>
      <trkpt lat="46.60694" lon="5.90401">
        <ele>868.20776367188</ele>
        <time>2012-07-18T09:06:10Z</time>
      </trkpt>
      <trkpt lat="46.60697" lon="5.90404">
        <ele>872.05297851562</ele>
        <time>2012-07-18T09:06:12Z</time>
      </trkpt>
      <trkpt lat="46.60701" lon="5.90401">
        <ele>876.37915039062</ele>
        <time>2012-07-18T09:06:19Z</time>
      </trkpt>
      <trkpt lat="46.60716" lon="5.90401">
        <ele>883.10815429688</ele>
        <time>2012-07-18T09:06:28Z</time>
      </trkpt>
      <trkpt lat="46.60727" lon="5.90401">
        <ele>883.10815429688</ele>
        <time>2012-07-18T09:06:39Z</time>
      </trkpt>
      <trkpt lat="46.60729" lon="5.90401">
        <ele>883.10815429688</ele>
        <time>2012-07-18T09:06:40Z</time>
      </trkpt>
      <trkpt lat="46.60748" lon="5.90397">
        <ele>886.47290039062</ele>
        <time>2012-07-18T09:06:51Z</time>
      </trkpt>
      <trkpt lat="46.6075" lon="5.90395">
        <ele>885.9921875</ele>
        <time>2012-07-18T09:06:54Z</time>
      </trkpt>
      <trkpt lat="46.60757" lon="5.90395">
        <ele>885.51147460938</ele>
        <time>2012-07-18T09:06:59Z</time>
      </trkpt>
      <trkpt lat="46.60765" lon="5.90393">
        <ele>885.03100585938</ele>
        <time>2012-07-18T09:07:07Z</time>
      </trkpt>
      <trkpt lat="46.60772" lon="5.90389">
        <ele>883.5888671875</ele>
        <time>2012-07-18T09:07:12Z</time>
      </trkpt>
      <trkpt lat="46.60784" lon="5.90389">
        <ele>882.62768554688</ele>
        <time>2012-07-18T09:07:20Z</time>
      </trkpt>
      <trkpt lat="46.60793" lon="5.90391">
        <ele>884.06958007812</ele>
        <time>2012-07-18T09:07:35Z</time>
      </trkpt>
      <trkpt lat="46.60793" lon="5.90391">
        <ele>885.51147460938</ele>
        <time>2012-07-18T09:07:41Z</time>
      </trkpt>
      <trkpt lat="46.60795" lon="5.90384">
        <ele>885.51147460938</ele>
        <time>2012-07-18T09:07:45Z</time>
      </trkpt>
      <trkpt lat="46.608" lon="5.90374">
        <ele>885.9921875</ele>
        <time>2012-07-18T09:07:51Z</time>
      </trkpt>
      <trkpt lat="46.60806" lon="5.90361">
        <ele>882.62768554688</ele>
        <time>2012-07-18T09:08:01Z</time>
      </trkpt>
      <trkpt lat="46.60806" lon="5.90352">
        <ele>885.51147460938</ele>
        <time>2012-07-18T09:08:11Z</time>
      </trkpt>
      <trkpt lat="46.60808" lon="5.9035">
        <ele>886.95336914062</ele>
        <time>2012-07-18T09:08:20Z</time>
      </trkpt>
      <trkpt lat="46.60804" lon="5.9035">
        <ele>886.47290039062</ele>
        <time>2012-07-18T09:08:26Z</time>
      </trkpt>
      <trkpt lat="46.608" lon="5.90367">
        <ele>885.03100585938</ele>
        <time>2012-07-18T09:08:36Z</time>
      </trkpt>
      <trkpt lat="46.60797" lon="5.90367">
        <ele>884.06958007812</ele>
        <time>2012-07-18T09:08:39Z</time>
      </trkpt>
      <trkpt lat="46.60784" lon="5.90374">
        <ele>883.5888671875</ele>
        <time>2012-07-18T09:08:44Z</time>
      </trkpt>
      <trkpt lat="46.60767" lon="5.90376">
        <ele>884.55029296875</ele>
        <time>2012-07-18T09:08:52Z</time>
      </trkpt>
      <trkpt lat="46.60765" lon="5.9038">
        <ele>885.51147460938</ele>
        <time>2012-07-18T09:09:00Z</time>
      </trkpt>
      <trkpt lat="46.60757" lon="5.90376">
        <ele>887.91479492188</ele>
        <time>2012-07-18T09:09:09Z</time>
      </trkpt>
      <trkpt lat="46.60754" lon="5.90378">
        <ele>888.87622070312</ele>
        <time>2012-07-18T09:09:11Z</time>
      </trkpt>
      <trkpt lat="46.60748" lon="5.90386">
        <ele>890.31811523438</ele>
        <time>2012-07-18T09:09:17Z</time>
      </trkpt>
      <trkpt lat="46.60735" lon="5.90391">
        <ele>888.87622070312</ele>
        <time>2012-07-18T09:09:23Z</time>
      </trkpt>
      <trkpt lat="46.60724" lon="5.90395">
        <ele>886.47290039062</ele>
        <time>2012-07-18T09:09:34Z</time>
      </trkpt>
      <trkpt lat="46.60722" lon="5.90397">
        <ele>885.51147460938</ele>
        <time>2012-07-18T09:09:36Z</time>
      </trkpt>
      <trkpt lat="46.60716" lon="5.90401">
        <ele>884.06958007812</ele>
        <time>2012-07-18T09:09:45Z</time>
      </trkpt>
      <trkpt lat="46.60716" lon="5.90401">
        <ele>884.06958007812</ele>
        <time>2012-07-18T09:10:08Z</time>
      </trkpt>
      <trkpt lat="46.60703" lon="5.90406">
        <ele>883.10815429688</ele>
        <time>2012-07-18T09:10:18Z</time>
      </trkpt>
      <trkpt lat="46.60701" lon="5.90406">
        <ele>883.10815429688</ele>
        <time>2012-07-18T09:10:20Z</time>
      </trkpt>
      <trkpt lat="46.60701" lon="5.90399">
        <ele>882.62768554688</ele>
        <time>2012-07-18T09:10:30Z</time>
      </trkpt>
      <trkpt lat="46.60703" lon="5.90399">
        <ele>882.62768554688</ele>
        <time>2012-07-18T09:10:34Z</time>
      </trkpt>
      <trkpt lat="46.60718" lon="5.90395">
        <ele>882.14697265625</ele>
        <time>2012-07-18T09:10:38Z</time>
      </trkpt>
      <trkpt lat="46.60802" lon="5.9038">
        <ele>882.62768554688</ele>
        <time>2012-07-18T09:10:46Z</time>
      </trkpt>
      <trkpt lat="46.60875" lon="5.9035">
        <ele>882.62768554688</ele>
        <time>2012-07-18T09:10:52Z</time>
      </trkpt>
      <trkpt lat="46.60898" lon="5.90331">
        <ele>883.10815429688</ele>
        <time>2012-07-18T09:10:54Z</time>
      </trkpt>
      <trkpt lat="46.60954" lon="5.90236">
        <ele>883.10815429688</ele>
        <time>2012-07-18T09:11:00Z</time>
      </trkpt>
      <trkpt lat="46.60956" lon="5.90157">
        <ele>882.14697265625</ele>
        <time>2012-07-18T09:11:05Z</time>
      </trkpt>
      <trkpt lat="46.60939" lon="5.90135">
        <ele>882.14697265625</ele>
        <time>2012-07-18T09:11:07Z</time>
      </trkpt>
      <trkpt lat="46.6089" lon="5.90067">
        <ele>882.62768554688</ele>
        <time>2012-07-18T09:11:12Z</time>
      </trkpt>
      <trkpt lat="46.60827" lon="5.89874">
        <ele>880.22436523438</ele>
        <time>2012-07-18T09:11:22Z</time>
      </trkpt>
      <trkpt lat="46.60772" lon="5.8964">
        <ele>875.89819335938</ele>
        <time>2012-07-18T09:11:34Z</time>
      </trkpt>
      <trkpt lat="46.60772" lon="5.89625">
        <ele>875.41748046875</ele>
        <time>2012-07-18T09:11:35Z</time>
      </trkpt>
      <trkpt lat="46.60793" lon="5.89586">
        <ele>872.53369140625</ele>
        <time>2012-07-18T09:11:39Z</time>
      </trkpt>
      <trkpt lat="46.6083" lon="5.89607">
        <ele>867.72705078125</ele>
        <time>2012-07-18T09:11:44Z</time>
      </trkpt>
      <trkpt lat="46.609" lon="5.89715">
        <ele>861.47875976562</ele>
        <time>2012-07-18T09:11:52Z</time>
      </trkpt>
      <trkpt lat="46.60954" lon="5.89745">
        <ele>857.63330078125</ele>
        <time>2012-07-18T09:11:56Z</time>
      </trkpt>
      <trkpt lat="46.60993" lon="5.89762">
        <ele>855.22998046875</ele>
        <time>2012-07-18T09:11:59Z</time>
      </trkpt>
      <trkpt lat="46.61057" lon="5.89749">
        <ele>851.384765625</ele>
        <time>2012-07-18T09:12:04Z</time>
      </trkpt>
      <trkpt lat="46.61091" lon="5.89725">
        <ele>848.9814453125</ele>
        <time>2012-07-18T09:12:07Z</time>
      </trkpt>
      <trkpt lat="46.61134" lon="5.89633">
        <ele>843.69409179688</ele>
        <time>2012-07-18T09:12:13Z</time>
      </trkpt>
      <trkpt lat="46.61141" lon="5.89597">
        <ele>842.25219726562</ele>
        <time>2012-07-18T09:12:15Z</time>
      </trkpt>
      <trkpt lat="46.61149" lon="5.89545">
        <ele>839.3681640625</ele>
        <time>2012-07-18T09:12:18Z</time>
      </trkpt>
      <trkpt lat="46.61169" lon="5.89515">
        <ele>835.52294921875</ele>
        <time>2012-07-18T09:12:22Z</time>
      </trkpt>
      <trkpt lat="46.61235" lon="5.89502">
        <ele>828.31323242188</ele>
        <time>2012-07-18T09:12:30Z</time>
      </trkpt>
      <trkpt lat="46.61383" lon="5.89485">
        <ele>818.21923828125</ele>
        <time>2012-07-18T09:12:42Z</time>
      </trkpt>
      <trkpt lat="46.61413" lon="5.89481">
        <ele>815.81616210938</ele>
        <time>2012-07-18T09:12:45Z</time>
      </trkpt>
      <trkpt lat="46.61437" lon="5.89442">
        <ele>810.0478515625</ele>
        <time>2012-07-18T09:12:50Z</time>
      </trkpt>
      <trkpt lat="46.614" lon="5.8941">
        <ele>806.20263671875</ele>
        <time>2012-07-18T09:12:54Z</time>
      </trkpt>
      <trkpt lat="46.61299" lon="5.89359">
        <ele>798.99291992188</ele>
        <time>2012-07-18T09:13:03Z</time>
      </trkpt>
      <trkpt lat="46.61282" lon="5.89303">
        <ele>794.66674804688</ele>
        <time>2012-07-18T09:13:08Z</time>
      </trkpt>
      <trkpt lat="46.61306" lon="5.89271">
        <ele>791.78295898438</ele>
        <time>2012-07-18T09:13:11Z</time>
      </trkpt>
      <trkpt lat="46.614" lon="5.8917">
        <ele>784.5732421875</ele>
        <time>2012-07-18T09:13:20Z</time>
      </trkpt>
      <trkpt lat="46.61478" lon="5.89138">
        <ele>779.76635742188</ele>
        <time>2012-07-18T09:13:27Z</time>
      </trkpt>
      <trkpt lat="46.61501" lon="5.89138">
        <ele>777.36328125</ele>
        <time>2012-07-18T09:13:30Z</time>
      </trkpt>
      <trkpt lat="46.61516" lon="5.89108">
        <ele>774.47924804688</ele>
        <time>2012-07-18T09:13:35Z</time>
      </trkpt>
      <trkpt lat="46.61499" lon="5.89082">
        <ele>773.03735351562</ele>
        <time>2012-07-18T09:13:38Z</time>
      </trkpt>
      <trkpt lat="46.61475" lon="5.89056">
        <ele>772.07592773438</ele>
        <time>2012-07-18T09:13:41Z</time>
      </trkpt>
      <trkpt lat="46.61437" lon="5.88992">
        <ele>770.1533203125</ele>
        <time>2012-07-18T09:13:47Z</time>
      </trkpt>
      <trkpt lat="46.61428" lon="5.88919">
        <ele>768.23071289062</ele>
        <time>2012-07-18T09:13:52Z</time>
      </trkpt>
      <trkpt lat="46.6143" lon="5.88833">
        <ele>766.78881835938</ele>
        <time>2012-07-18T09:13:57Z</time>
      </trkpt>
      <trkpt lat="46.61454" lon="5.88698">
        <ele>765.34692382812</ele>
        <time>2012-07-18T09:14:07Z</time>
      </trkpt>
      <trkpt lat="46.6146" lon="5.88668">
        <ele>765.82763671875</ele>
        <time>2012-07-18T09:14:16Z</time>
      </trkpt>
      <trkpt lat="46.61458" lon="5.88646">
        <ele>765.82763671875</ele>
        <time>2012-07-18T09:14:22Z</time>
      </trkpt>
      <trkpt lat="46.6145" lon="5.8864">
        <ele>765.34692382812</ele>
        <time>2012-07-18T09:14:28Z</time>
      </trkpt>
      <trkpt lat="46.61448" lon="5.88638">
        <ele>765.34692382812</ele>
        <time>2012-07-18T09:14:30Z</time>
      </trkpt>
      <trkpt lat="46.61437" lon="5.88625">
        <ele>766.30810546875</ele>
        <time>2012-07-18T09:14:39Z</time>
      </trkpt>
      <trkpt lat="46.61435" lon="5.88625">
        <ele>769.19213867188</ele>
        <time>2012-07-18T09:14:59Z</time>
      </trkpt>
      <trkpt lat="46.61437" lon="5.88627">
        <ele>770.63403320312</ele>
        <time>2012-07-18T09:15:10Z</time>
      </trkpt>
      <trkpt lat="46.61443" lon="5.88631">
        <ele>771.11474609375</ele>
        <time>2012-07-18T09:15:17Z</time>
      </trkpt>
      <trkpt lat="46.61452" lon="5.88631">
        <ele>770.63403320312</ele>
        <time>2012-07-18T09:15:24Z</time>
      </trkpt>
      <trkpt lat="46.61454" lon="5.88631">
        <ele>769.6728515625</ele>
        <time>2012-07-18T09:15:28Z</time>
      </trkpt>
      <trkpt lat="46.61456" lon="5.88627">
        <ele>769.19213867188</ele>
        <time>2012-07-18T09:15:33Z</time>
      </trkpt>
      <trkpt lat="46.61458" lon="5.88623">
        <ele>770.63403320312</ele>
        <time>2012-07-18T09:15:39Z</time>
      </trkpt>
      <trkpt lat="46.61465" lon="5.88612">
        <ele>773.03735351562</ele>
        <time>2012-07-18T09:15:46Z</time>
      </trkpt>
      <trkpt lat="46.61473" lon="5.88605">
        <ele>774.9599609375</ele>
        <time>2012-07-18T09:15:54Z</time>
      </trkpt>
      <trkpt lat="46.61475" lon="5.88601">
        <ele>775.92114257812</ele>
        <time>2012-07-18T09:15:58Z</time>
      </trkpt>
      <trkpt lat="46.61482" lon="5.88586">
        <ele>774.9599609375</ele>
        <time>2012-07-18T09:16:04Z</time>
      </trkpt>
      <trkpt lat="46.6149" lon="5.88571">
        <ele>772.556640625</ele>
        <time>2012-07-18T09:16:14Z</time>
      </trkpt>
      <trkpt lat="46.61493" lon="5.88565">
        <ele>773.03735351562</ele>
        <time>2012-07-18T09:16:26Z</time>
      </trkpt>
      <trkpt lat="46.61493" lon="5.8856">
        <ele>772.556640625</ele>
        <time>2012-07-18T09:16:42Z</time>
      </trkpt>
      <trkpt lat="46.61482" lon="5.88554">
        <ele>772.556640625</ele>
        <time>2012-07-18T09:16:54Z</time>
      </trkpt>
      <trkpt lat="46.61482" lon="5.88554">
        <ele>773.03735351562</ele>
        <time>2012-07-18T09:17:08Z</time>
      </trkpt>
      <trkpt lat="46.61484" lon="5.88556">
        <ele>773.03735351562</ele>
        <time>2012-07-18T09:17:15Z</time>
      </trkpt>
      <trkpt lat="46.61486" lon="5.88558">
        <ele>773.51806640625</ele>
        <time>2012-07-18T09:17:19Z</time>
      </trkpt>
      <trkpt lat="46.61493" lon="5.88554">
        <ele>773.51806640625</ele>
        <time>2012-07-18T09:17:25Z</time>
      </trkpt>
      <trkpt lat="46.6151" lon="5.88552">
        <ele>771.11474609375</ele>
        <time>2012-07-18T09:17:39Z</time>
      </trkpt>
      <trkpt lat="46.61512" lon="5.88554">
        <ele>771.59521484375</ele>
        <time>2012-07-18T09:17:53Z</time>
      </trkpt>
      <trkpt lat="46.6151" lon="5.88554">
        <ele>771.11474609375</ele>
        <time>2012-07-18T09:18:05Z</time>
      </trkpt>
      <trkpt lat="46.61508" lon="5.88556">
        <ele>769.6728515625</ele>
        <time>2012-07-18T09:18:11Z</time>
      </trkpt>
      <trkpt lat="46.61503" lon="5.88554">
        <ele>768.71142578125</ele>
        <time>2012-07-18T09:18:19Z</time>
      </trkpt>
      <trkpt lat="46.61484" lon="5.88562">
        <ele>773.51806640625</ele>
        <time>2012-07-18T09:18:30Z</time>
      </trkpt>
      <trkpt lat="46.61475" lon="5.88558">
        <ele>772.556640625</ele>
        <time>2012-07-18T09:18:36Z</time>
      </trkpt>
      <trkpt lat="46.61471" lon="5.88556">
        <ele>771.11474609375</ele>
        <time>2012-07-18T09:18:43Z</time>
      </trkpt>
      <trkpt lat="46.61463" lon="5.88543">
        <ele>769.19213867188</ele>
        <time>2012-07-18T09:18:53Z</time>
      </trkpt>
      <trkpt lat="46.61443" lon="5.88537">
        <ele>772.556640625</ele>
        <time>2012-07-18T09:19:02Z</time>
      </trkpt>
      <trkpt lat="46.61439" lon="5.88537">
        <ele>781.68920898438</ele>
        <time>2012-07-18T09:19:14Z</time>
      </trkpt>
      <trkpt lat="46.61424" lon="5.88535">
        <ele>786.01513671875</ele>
        <time>2012-07-18T09:19:20Z</time>
      </trkpt>
      <trkpt lat="46.61415" lon="5.8853">
        <ele>788.89916992188</ele>
        <time>2012-07-18T09:19:29Z</time>
      </trkpt>
      <trkpt lat="46.61409" lon="5.88528">
        <ele>787.93774414062</ele>
        <time>2012-07-18T09:19:32Z</time>
      </trkpt>
      <trkpt lat="46.61394" lon="5.88509">
        <ele>784.09252929688</ele>
        <time>2012-07-18T09:19:41Z</time>
      </trkpt>
      <trkpt lat="46.6139" lon="5.88502">
        <ele>779.28564453125</ele>
        <time>2012-07-18T09:19:47Z</time>
      </trkpt>
      <trkpt lat="46.61383" lon="5.88496">
        <ele>776.88256835938</ele>
        <time>2012-07-18T09:19:51Z</time>
      </trkpt>
      <trkpt lat="46.61377" lon="5.88487">
        <ele>774.47924804688</ele>
        <time>2012-07-18T09:20:01Z</time>
      </trkpt>
      <trkpt lat="46.6137" lon="5.88483">
        <ele>774.47924804688</ele>
        <time>2012-07-18T09:20:05Z</time>
      </trkpt>
      <trkpt lat="46.61362" lon="5.88477">
        <ele>775.4404296875</ele>
        <time>2012-07-18T09:20:17Z</time>
      </trkpt>
      <trkpt lat="46.61351" lon="5.88472">
        <ele>773.03735351562</ele>
        <time>2012-07-18T09:20:27Z</time>
      </trkpt>
      <trkpt lat="46.6134" lon="5.8847">
        <ele>771.59521484375</ele>
        <time>2012-07-18T09:20:34Z</time>
      </trkpt>
      <trkpt lat="46.6133" lon="5.88466">
        <ele>769.19213867188</ele>
        <time>2012-07-18T09:20:43Z</time>
      </trkpt>
      <trkpt lat="46.61321" lon="5.88462">
        <ele>767.75</ele>
        <time>2012-07-18T09:20:48Z</time>
      </trkpt>
      <trkpt lat="46.6131" lon="5.88451">
        <ele>764.38549804688</ele>
        <time>2012-07-18T09:20:56Z</time>
      </trkpt>
      <trkpt lat="46.61302" lon="5.88444">
        <ele>760.5400390625</ele>
        <time>2012-07-18T09:21:07Z</time>
      </trkpt>
      <trkpt lat="46.61284" lon="5.88432">
        <ele>759.09814453125</ele>
        <time>2012-07-18T09:21:18Z</time>
      </trkpt>
      <trkpt lat="46.61276" lon="5.88419">
        <ele>758.13696289062</ele>
        <time>2012-07-18T09:21:27Z</time>
      </trkpt>
      <trkpt lat="46.61265" lon="5.88408">
        <ele>755.73364257812</ele>
        <time>2012-07-18T09:21:35Z</time>
      </trkpt>
      <trkpt lat="46.61254" lon="5.88402">
        <ele>752.36889648438</ele>
        <time>2012-07-18T09:21:44Z</time>
      </trkpt>
      <trkpt lat="46.6125" lon="5.88397">
        <ele>751.40771484375</ele>
        <time>2012-07-18T09:21:48Z</time>
      </trkpt>
      <trkpt lat="46.61235" lon="5.88387">
        <ele>749.48510742188</ele>
        <time>2012-07-18T09:21:59Z</time>
      </trkpt>
      <trkpt lat="46.61229" lon="5.8838">
        <ele>748.52368164062</ele>
        <time>2012-07-18T09:22:03Z</time>
      </trkpt>
      <trkpt lat="46.61224" lon="5.88374">
        <ele>748.04321289062</ele>
        <time>2012-07-18T09:22:12Z</time>
      </trkpt>
      <trkpt lat="46.6122" lon="5.88367">
        <ele>744.19775390625</ele>
        <time>2012-07-18T09:22:23Z</time>
      </trkpt>
      <trkpt lat="46.61216" lon="5.88365">
        <ele>743.236328125</ele>
        <time>2012-07-18T09:22:31Z</time>
      </trkpt>
      <trkpt lat="46.61214" lon="5.88359">
        <ele>740.8330078125</ele>
        <time>2012-07-18T09:22:40Z</time>
      </trkpt>
      <trkpt lat="46.61203" lon="5.88354">
        <ele>736.02661132812</ele>
        <time>2012-07-18T09:22:52Z</time>
      </trkpt>
      <trkpt lat="46.61199" lon="5.88354">
        <ele>730.25854492188</ele>
        <time>2012-07-18T09:23:02Z</time>
      </trkpt>
      <trkpt lat="46.61199" lon="5.88356">
        <ele>728.81665039062</ele>
        <time>2012-07-18T09:23:05Z</time>
      </trkpt>
      <trkpt lat="46.61199" lon="5.88369">
        <ele>725.45190429688</ele>
        <time>2012-07-18T09:23:16Z</time>
      </trkpt>
      <trkpt lat="46.61196" lon="5.88374">
        <ele>724.97143554688</ele>
        <time>2012-07-18T09:23:19Z</time>
      </trkpt>
      <trkpt lat="46.61194" lon="5.88384">
        <ele>725.45190429688</ele>
        <time>2012-07-18T09:23:34Z</time>
      </trkpt>
      <trkpt lat="46.61192" lon="5.88382">
        <ele>725.45190429688</ele>
        <time>2012-07-18T09:23:39Z</time>
      </trkpt>
      <trkpt lat="46.61192" lon="5.8838">
        <ele>725.45190429688</ele>
        <time>2012-07-18T09:23:43Z</time>
      </trkpt>
      <trkpt lat="46.61194" lon="5.88372">
        <ele>721.12622070312</ele>
        <time>2012-07-18T09:23:52Z</time>
      </trkpt>
      <trkpt lat="46.61196" lon="5.88369">
        <ele>713.916015625</ele>
        <time>2012-07-18T09:24:10Z</time>
      </trkpt>
      <trkpt lat="46.61196" lon="5.88369">
        <ele>711.99365234375</ele>
        <time>2012-07-18T09:26:08Z</time>
      </trkpt>
      <trkpt lat="46.61196" lon="5.88369">
        <ele>711.99365234375</ele>
        <time>2012-07-18T09:26:31Z</time>
      </trkpt>
      <trkpt lat="46.61196" lon="5.88361">
        <ele>712.95483398438</ele>
        <time>2012-07-18T09:27:00Z</time>
      </trkpt>
      <trkpt lat="46.61199" lon="5.88356">
        <ele>714.39672851562</ele>
        <time>2012-07-18T09:27:14Z</time>
      </trkpt>
      <trkpt lat="46.61194" lon="5.88356">
        <ele>715.35815429688</ele>
        <time>2012-07-18T09:27:33Z</time>
      </trkpt>
      <trkpt lat="46.61192" lon="5.88359">
        <ele>715.35815429688</ele>
        <time>2012-07-18T09:27:36Z</time>
      </trkpt>
      <trkpt lat="46.61186" lon="5.88363">
        <ele>715.35815429688</ele>
        <time>2012-07-18T09:27:40Z</time>
      </trkpt>
      <trkpt lat="46.61184" lon="5.88363">
        <ele>715.35815429688</ele>
        <time>2012-07-18T09:27:43Z</time>
      </trkpt>
      <trkpt lat="46.61181" lon="5.88374">
        <ele>713.435546875</ele>
        <time>2012-07-18T09:27:52Z</time>
      </trkpt>
      <trkpt lat="46.61177" lon="5.88384">
        <ele>711.51293945312</ele>
        <time>2012-07-18T09:28:09Z</time>
      </trkpt>
      <trkpt lat="46.61166" lon="5.88397">
        <ele>716.31958007812</ele>
        <time>2012-07-18T09:28:47Z</time>
      </trkpt>
      <trkpt lat="46.61169" lon="5.88389">
        <ele>715.8388671875</ele>
        <time>2012-07-18T09:28:52Z</time>
      </trkpt>
      <trkpt lat="46.61169" lon="5.88384">
        <ele>712.47412109375</ele>
        <time>2012-07-18T09:28:57Z</time>
      </trkpt>
      <trkpt lat="46.61171" lon="5.88384">
        <ele>711.51293945312</ele>
        <time>2012-07-18T09:28:59Z</time>
      </trkpt>
      <trkpt lat="46.61175" lon="5.88378">
        <ele>710.07080078125</ele>
        <time>2012-07-18T09:29:03Z</time>
      </trkpt>
      <trkpt lat="46.61177" lon="5.88376">
        <ele>710.07080078125</ele>
        <time>2012-07-18T09:29:05Z</time>
      </trkpt>
      <trkpt lat="46.61179" lon="5.88374">
        <ele>710.07080078125</ele>
        <time>2012-07-18T09:29:07Z</time>
      </trkpt>
      <trkpt lat="46.61184" lon="5.88369">
        <ele>709.10961914062</ele>
        <time>2012-07-18T09:29:11Z</time>
      </trkpt>
      <trkpt lat="46.61188" lon="5.88365">
        <ele>708.1484375</ele>
        <time>2012-07-18T09:29:15Z</time>
      </trkpt>
      <trkpt lat="46.61196" lon="5.88361">
        <ele>706.70629882812</ele>
        <time>2012-07-18T09:29:23Z</time>
      </trkpt>
      <trkpt lat="46.61203" lon="5.88363">
        <ele>705.26440429688</ele>
        <time>2012-07-18T09:29:38Z</time>
      </trkpt>
      <trkpt lat="46.61201" lon="5.88361">
        <ele>705.26440429688</ele>
        <time>2012-07-18T09:29:46Z</time>
      </trkpt>
      <trkpt lat="46.61192" lon="5.88354">
        <ele>710.55151367188</ele>
        <time>2012-07-18T09:29:54Z</time>
      </trkpt>
      <trkpt lat="46.61186" lon="5.88346">
        <ele>711.99365234375</ele>
        <time>2012-07-18T09:30:03Z</time>
      </trkpt>
      <trkpt lat="46.61184" lon="5.88344">
        <ele>712.47412109375</ele>
        <time>2012-07-18T09:30:05Z</time>
      </trkpt>
      <trkpt lat="46.61175" lon="5.88335">
        <ele>719.20361328125</ele>
        <time>2012-07-18T09:30:11Z</time>
      </trkpt>
      <trkpt lat="46.61164" lon="5.88326">
        <ele>722.56811523438</ele>
        <time>2012-07-18T09:30:20Z</time>
      </trkpt>
      <trkpt lat="46.61162" lon="5.88324">
        <ele>722.56811523438</ele>
        <time>2012-07-18T09:30:22Z</time>
      </trkpt>
      <trkpt lat="46.61164" lon="5.88311">
        <ele>722.08740234375</ele>
        <time>2012-07-18T09:30:30Z</time>
      </trkpt>
      <trkpt lat="46.61164" lon="5.88311">
        <ele>721.60668945312</ele>
        <time>2012-07-18T09:30:31Z</time>
      </trkpt>
      <trkpt lat="46.61166" lon="5.88292">
        <ele>719.68432617188</ele>
        <time>2012-07-18T09:30:39Z</time>
      </trkpt>
      <trkpt lat="46.61164" lon="5.88279">
        <ele>718.72290039062</ele>
        <time>2012-07-18T09:30:50Z</time>
      </trkpt>
      <trkpt lat="46.6116" lon="5.88258">
        <ele>720.6455078125</ele>
        <time>2012-07-18T09:30:59Z</time>
      </trkpt>
      <trkpt lat="46.61156" lon="5.88241">
        <ele>719.20361328125</ele>
        <time>2012-07-18T09:31:08Z</time>
      </trkpt>
      <trkpt lat="46.61156" lon="5.88236">
        <ele>719.20361328125</ele>
        <time>2012-07-18T09:31:11Z</time>
      </trkpt>
      <trkpt lat="46.61149" lon="5.88226">
        <ele>717.76147460938</ele>
        <time>2012-07-18T09:31:19Z</time>
      </trkpt>
      <trkpt lat="46.61143" lon="5.88215">
        <ele>717.28100585938</ele>
        <time>2012-07-18T09:31:29Z</time>
      </trkpt>
      <trkpt lat="46.61134" lon="5.88204">
        <ele>717.76147460938</ele>
        <time>2012-07-18T09:31:35Z</time>
      </trkpt>
      <trkpt lat="46.61126" lon="5.88189">
        <ele>717.76147460938</ele>
        <time>2012-07-18T09:31:48Z</time>
      </trkpt>
      <trkpt lat="46.61124" lon="5.88189">
        <ele>717.76147460938</ele>
        <time>2012-07-18T09:31:49Z</time>
      </trkpt>
      <trkpt lat="46.61117" lon="5.88183">
        <ele>717.76147460938</ele>
        <time>2012-07-18T09:31:59Z</time>
      </trkpt>
      <trkpt lat="46.61106" lon="5.88174">
        <ele>720.6455078125</ele>
        <time>2012-07-18T09:32:07Z</time>
      </trkpt>
      <trkpt lat="46.61096" lon="5.88159">
        <ele>721.12622070312</ele>
        <time>2012-07-18T09:32:20Z</time>
      </trkpt>
      <trkpt lat="46.61091" lon="5.88155">
        <ele>721.12622070312</ele>
        <time>2012-07-18T09:32:25Z</time>
      </trkpt>
      <trkpt lat="46.61091" lon="5.8814">
        <ele>721.12622070312</ele>
        <time>2012-07-18T09:32:31Z</time>
      </trkpt>
      <trkpt lat="46.61089" lon="5.88129">
        <ele>721.60668945312</ele>
        <time>2012-07-18T09:32:40Z</time>
      </trkpt>
      <trkpt lat="46.61089" lon="5.88114">
        <ele>721.60668945312</ele>
        <time>2012-07-18T09:32:46Z</time>
      </trkpt>
      <trkpt lat="46.61091" lon="5.88093">
        <ele>722.56811523438</ele>
        <time>2012-07-18T09:32:56Z</time>
      </trkpt>
      <trkpt lat="46.61093" lon="5.88084">
        <ele>724.49072265625</ele>
        <time>2012-07-18T09:32:59Z</time>
      </trkpt>
      <trkpt lat="46.61096" lon="5.88082">
        <ele>724.97143554688</ele>
        <time>2012-07-18T09:33:01Z</time>
      </trkpt>
      <trkpt lat="46.61104" lon="5.88069">
        <ele>725.45190429688</ele>
        <time>2012-07-18T09:33:11Z</time>
      </trkpt>
      <trkpt lat="46.61115" lon="5.8806">
        <ele>727.85522460938</ele>
        <time>2012-07-18T09:33:21Z</time>
      </trkpt>
      <trkpt lat="46.61121" lon="5.88052">
        <ele>730.25854492188</ele>
        <time>2012-07-18T09:33:29Z</time>
      </trkpt>
      <trkpt lat="46.61128" lon="5.88037">
        <ele>733.62329101562</ele>
        <time>2012-07-18T09:33:39Z</time>
      </trkpt>
      <trkpt lat="46.6113" lon="5.88028">
        <ele>733.62329101562</ele>
        <time>2012-07-18T09:33:44Z</time>
      </trkpt>
      <trkpt lat="46.61132" lon="5.88009">
        <ele>734.58471679688</ele>
        <time>2012-07-18T09:33:51Z</time>
      </trkpt>
      <trkpt lat="46.61136" lon="5.88005">
        <ele>735.0654296875</ele>
        <time>2012-07-18T09:33:54Z</time>
      </trkpt>
      <trkpt lat="46.61141" lon="5.88">
        <ele>735.0654296875</ele>
        <time>2012-07-18T09:33:59Z</time>
      </trkpt>
      <trkpt lat="46.61147" lon="5.87994">
        <ele>736.98779296875</ele>
        <time>2012-07-18T09:34:18Z</time>
      </trkpt>
      <trkpt lat="46.61143" lon="5.87994">
        <ele>736.98779296875</ele>
        <time>2012-07-18T09:34:29Z</time>
      </trkpt>
      <trkpt lat="46.61141" lon="5.87977">
        <ele>735.5458984375</ele>
        <time>2012-07-18T09:34:46Z</time>
      </trkpt>
      <trkpt lat="46.61141" lon="5.8797">
        <ele>736.98779296875</ele>
        <time>2012-07-18T09:34:54Z</time>
      </trkpt>
      <trkpt lat="46.61139" lon="5.87975">
        <ele>736.50732421875</ele>
        <time>2012-07-18T09:35:00Z</time>
      </trkpt>
      <trkpt lat="46.61141" lon="5.87983">
        <ele>735.0654296875</ele>
        <time>2012-07-18T09:35:09Z</time>
      </trkpt>
      <trkpt lat="46.61143" lon="5.87981">
        <ele>734.58471679688</ele>
        <time>2012-07-18T09:35:11Z</time>
      </trkpt>
      <trkpt lat="46.61154" lon="5.8797">
        <ele>733.142578125</ele>
        <time>2012-07-18T09:35:19Z</time>
      </trkpt>
      <trkpt lat="46.61164" lon="5.87964">
        <ele>731.70043945312</ele>
        <time>2012-07-18T09:35:29Z</time>
      </trkpt>
      <trkpt lat="46.61173" lon="5.87955">
        <ele>731.21997070312</ele>
        <time>2012-07-18T09:35:34Z</time>
      </trkpt>
      <trkpt lat="46.61181" lon="5.87947">
        <ele>731.21997070312</ele>
        <time>2012-07-18T09:35:43Z</time>
      </trkpt>
      <trkpt lat="46.61184" lon="5.87947">
        <ele>730.7392578125</ele>
        <time>2012-07-18T09:35:45Z</time>
      </trkpt>
      <trkpt lat="46.6119" lon="5.87929">
        <ele>728.3359375</ele>
        <time>2012-07-18T09:35:54Z</time>
      </trkpt>
      <trkpt lat="46.6119" lon="5.87925">
        <ele>727.37475585938</ele>
        <time>2012-07-18T09:35:58Z</time>
      </trkpt>
      <trkpt lat="46.61194" lon="5.87904">
        <ele>724.97143554688</ele>
        <time>2012-07-18T09:36:09Z</time>
      </trkpt>
      <trkpt lat="46.61194" lon="5.87902">
        <ele>724.97143554688</ele>
        <time>2012-07-18T09:36:10Z</time>
      </trkpt>
      <trkpt lat="46.61192" lon="5.87895">
        <ele>724.49072265625</ele>
        <time>2012-07-18T09:36:14Z</time>
      </trkpt>
      <trkpt lat="46.61192" lon="5.87889">
        <ele>724.01000976562</ele>
        <time>2012-07-18T09:36:17Z</time>
      </trkpt>
      <trkpt lat="46.61199" lon="5.87876">
        <ele>723.52954101562</ele>
        <time>2012-07-18T09:36:27Z</time>
      </trkpt>
      <trkpt lat="46.61201" lon="5.87872">
        <ele>724.01000976562</ele>
        <time>2012-07-18T09:36:30Z</time>
      </trkpt>
      <trkpt lat="46.61209" lon="5.87861">
        <ele>723.52954101562</ele>
        <time>2012-07-18T09:36:39Z</time>
      </trkpt>
      <trkpt lat="46.61211" lon="5.87859">
        <ele>722.56811523438</ele>
        <time>2012-07-18T09:36:42Z</time>
      </trkpt>
      <trkpt lat="46.61214" lon="5.87854">
        <ele>722.08740234375</ele>
        <time>2012-07-18T09:36:44Z</time>
      </trkpt>
      <trkpt lat="46.61211" lon="5.8785">
        <ele>721.60668945312</ele>
        <time>2012-07-18T09:36:46Z</time>
      </trkpt>
      <trkpt lat="46.61218" lon="5.87835">
        <ele>722.56811523438</ele>
        <time>2012-07-18T09:36:53Z</time>
      </trkpt>
      <trkpt lat="46.6122" lon="5.87829">
        <ele>722.56811523438</ele>
        <time>2012-07-18T09:36:57Z</time>
      </trkpt>
      <trkpt lat="46.61229" lon="5.87809">
        <ele>722.08740234375</ele>
        <time>2012-07-18T09:37:08Z</time>
      </trkpt>
      <trkpt lat="46.61231" lon="5.87799">
        <ele>721.60668945312</ele>
        <time>2012-07-18T09:37:16Z</time>
      </trkpt>
      <trkpt lat="46.61235" lon="5.87781">
        <ele>720.6455078125</ele>
        <time>2012-07-18T09:37:23Z</time>
      </trkpt>
      <trkpt lat="46.61239" lon="5.87766">
        <ele>718.72290039062</ele>
        <time>2012-07-18T09:37:34Z</time>
      </trkpt>
      <trkpt lat="46.61246" lon="5.87751">
        <ele>716.31958007812</ele>
        <time>2012-07-18T09:37:43Z</time>
      </trkpt>
      <trkpt lat="46.6125" lon="5.87741">
        <ele>714.87744140625</ele>
        <time>2012-07-18T09:37:50Z</time>
      </trkpt>
      <trkpt lat="46.61252" lon="5.87723">
        <ele>711.99365234375</ele>
        <time>2012-07-18T09:38:01Z</time>
      </trkpt>
      <trkpt lat="46.61254" lon="5.87717">
        <ele>711.51293945312</ele>
        <time>2012-07-18T09:38:04Z</time>
      </trkpt>
      <trkpt lat="46.61263" lon="5.87702">
        <ele>710.07080078125</ele>
        <time>2012-07-18T09:38:14Z</time>
      </trkpt>
      <trkpt lat="46.61269" lon="5.87685">
        <ele>709.59033203125</ele>
        <time>2012-07-18T09:38:22Z</time>
      </trkpt>
      <trkpt lat="46.61274" lon="5.87666">
        <ele>709.59033203125</ele>
        <time>2012-07-18T09:38:32Z</time>
      </trkpt>
      <trkpt lat="46.6128" lon="5.87651">
        <ele>710.07080078125</ele>
        <time>2012-07-18T09:38:41Z</time>
      </trkpt>
      <trkpt lat="46.61276" lon="5.87625">
        <ele>709.59033203125</ele>
        <time>2012-07-18T09:38:55Z</time>
      </trkpt>
      <trkpt lat="46.6128" lon="5.87601">
        <ele>708.62890625</ele>
        <time>2012-07-18T09:39:07Z</time>
      </trkpt>
      <trkpt lat="46.61287" lon="5.87588">
        <ele>708.62890625</ele>
        <time>2012-07-18T09:39:16Z</time>
      </trkpt>
      <trkpt lat="46.61287" lon="5.87571">
        <ele>709.59033203125</ele>
        <time>2012-07-18T09:39:26Z</time>
      </trkpt>
      <trkpt lat="46.61287" lon="5.87554">
        <ele>710.55151367188</ele>
        <time>2012-07-18T09:39:35Z</time>
      </trkpt>
      <trkpt lat="46.61291" lon="5.87545">
        <ele>711.99365234375</ele>
        <time>2012-07-18T09:39:42Z</time>
      </trkpt>
      <trkpt lat="46.61297" lon="5.8753">
        <ele>715.8388671875</ele>
        <time>2012-07-18T09:39:48Z</time>
      </trkpt>
      <trkpt lat="46.61304" lon="5.8752">
        <ele>719.68432617188</ele>
        <time>2012-07-18T09:39:55Z</time>
      </trkpt>
      <trkpt lat="46.61312" lon="5.87511">
        <ele>720.16479492188</ele>
        <time>2012-07-18T09:40:05Z</time>
      </trkpt>
      <trkpt lat="46.61334" lon="5.87496">
        <ele>721.60668945312</ele>
        <time>2012-07-18T09:40:18Z</time>
      </trkpt>
      <trkpt lat="46.61336" lon="5.87492">
        <ele>721.60668945312</ele>
        <time>2012-07-18T09:40:24Z</time>
      </trkpt>
      <trkpt lat="46.61345" lon="5.87477">
        <ele>721.60668945312</ele>
        <time>2012-07-18T09:40:35Z</time>
      </trkpt>
      <trkpt lat="46.61342" lon="5.87475">
        <ele>724.49072265625</ele>
        <time>2012-07-18T09:40:42Z</time>
      </trkpt>
      <trkpt lat="46.61342" lon="5.87475">
        <ele>725.45190429688</ele>
        <time>2012-07-18T09:40:49Z</time>
      </trkpt>
      <trkpt lat="46.61342" lon="5.87472">
        <ele>726.41333007812</ele>
        <time>2012-07-18T09:40:53Z</time>
      </trkpt>
      <trkpt lat="46.61342" lon="5.87472">
        <ele>727.37475585938</ele>
        <time>2012-07-18T09:41:01Z</time>
      </trkpt>
      <trkpt lat="46.61347" lon="5.87468">
        <ele>727.85522460938</ele>
        <time>2012-07-18T09:41:05Z</time>
      </trkpt>
      <trkpt lat="46.61349" lon="5.87468">
        <ele>728.3359375</ele>
        <time>2012-07-18T09:41:09Z</time>
      </trkpt>
      <trkpt lat="46.61353" lon="5.87457">
        <ele>728.81665039062</ele>
        <time>2012-07-18T09:41:17Z</time>
      </trkpt>
      <trkpt lat="46.61355" lon="5.87451">
        <ele>728.3359375</ele>
        <time>2012-07-18T09:41:21Z</time>
      </trkpt>
      <trkpt lat="46.61357" lon="5.8744">
        <ele>727.37475585938</ele>
        <time>2012-07-18T09:41:26Z</time>
      </trkpt>
      <trkpt lat="46.61366" lon="5.87434">
        <ele>727.37475585938</ele>
        <time>2012-07-18T09:41:37Z</time>
      </trkpt>
      <trkpt lat="46.61368" lon="5.87432">
        <ele>726.89404296875</ele>
        <time>2012-07-18T09:41:40Z</time>
      </trkpt>
      <trkpt lat="46.61375" lon="5.87423">
        <ele>725.45190429688</ele>
        <time>2012-07-18T09:41:47Z</time>
      </trkpt>
      <trkpt lat="46.61375" lon="5.87399">
        <ele>723.048828125</ele>
        <time>2012-07-18T09:41:56Z</time>
      </trkpt>
      <trkpt lat="46.6137" lon="5.87389">
        <ele>721.60668945312</ele>
        <time>2012-07-18T09:42:02Z</time>
      </trkpt>
      <trkpt lat="46.61364" lon="5.87372">
        <ele>718.72290039062</ele>
        <time>2012-07-18T09:42:14Z</time>
      </trkpt>
      <trkpt lat="46.61357" lon="5.87365">
        <ele>718.2421875</ele>
        <time>2012-07-18T09:42:18Z</time>
      </trkpt>
      <trkpt lat="46.61355" lon="5.8735">
        <ele>718.2421875</ele>
        <time>2012-07-18T09:42:32Z</time>
      </trkpt>
      <trkpt lat="46.61351" lon="5.87329">
        <ele>717.76147460938</ele>
        <time>2012-07-18T09:42:43Z</time>
      </trkpt>
      <trkpt lat="46.61347" lon="5.87314">
        <ele>716.80029296875</ele>
        <time>2012-07-18T09:42:52Z</time>
      </trkpt>
      <trkpt lat="46.61342" lon="5.87296">
        <ele>717.76147460938</ele>
        <time>2012-07-18T09:43:01Z</time>
      </trkpt>
      <trkpt lat="46.6134" lon="5.87281">
        <ele>718.72290039062</ele>
        <time>2012-07-18T09:43:08Z</time>
      </trkpt>
      <trkpt lat="46.61336" lon="5.8726">
        <ele>720.6455078125</ele>
        <time>2012-07-18T09:43:21Z</time>
      </trkpt>
      <trkpt lat="46.6133" lon="5.87239">
        <ele>722.56811523438</ele>
        <time>2012-07-18T09:43:32Z</time>
      </trkpt>
      <trkpt lat="46.6133" lon="5.87221">
        <ele>724.49072265625</ele>
        <time>2012-07-18T09:43:42Z</time>
      </trkpt>
      <trkpt lat="46.6133" lon="5.87206">
        <ele>726.41333007812</ele>
        <time>2012-07-18T09:43:52Z</time>
      </trkpt>
      <trkpt lat="46.61332" lon="5.87191">
        <ele>723.52954101562</ele>
        <time>2012-07-18T09:43:59Z</time>
      </trkpt>
      <trkpt lat="46.61334" lon="5.87181">
        <ele>719.20361328125</ele>
        <time>2012-07-18T09:44:08Z</time>
      </trkpt>
      <trkpt lat="46.61338" lon="5.87146">
        <ele>711.51293945312</ele>
        <time>2012-07-18T09:44:26Z</time>
      </trkpt>
      <trkpt lat="46.61338" lon="5.87136">
        <ele>709.10961914062</ele>
        <time>2012-07-18T09:44:32Z</time>
      </trkpt>
      <trkpt lat="46.61336" lon="5.87116">
        <ele>707.18701171875</ele>
        <time>2012-07-18T09:44:41Z</time>
      </trkpt>
      <trkpt lat="46.61334" lon="5.87106">
        <ele>707.18701171875</ele>
        <time>2012-07-18T09:44:47Z</time>
      </trkpt>
      <trkpt lat="46.61334" lon="5.87088">
        <ele>704.30322265625</ele>
        <time>2012-07-18T09:44:55Z</time>
      </trkpt>
      <trkpt lat="46.61336" lon="5.8708">
        <ele>701.41918945312</ele>
        <time>2012-07-18T09:45:01Z</time>
      </trkpt>
      <trkpt lat="46.61336" lon="5.87073">
        <ele>699.97705078125</ele>
        <time>2012-07-18T09:45:05Z</time>
      </trkpt>
      <trkpt lat="46.61336" lon="5.87065">
        <ele>698.53491210938</ele>
        <time>2012-07-18T09:45:08Z</time>
      </trkpt>
      <trkpt lat="46.6134" lon="5.87045">
        <ele>694.68969726562</ele>
        <time>2012-07-18T09:45:15Z</time>
      </trkpt>
      <trkpt lat="46.6134" lon="5.87041">
        <ele>693.24780273438</ele>
        <time>2012-07-18T09:45:17Z</time>
      </trkpt>
      <trkpt lat="46.61345" lon="5.8703">
        <ele>690.84448242188</ele>
        <time>2012-07-18T09:45:25Z</time>
      </trkpt>
      <trkpt lat="46.61345" lon="5.87015">
        <ele>691.3251953125</ele>
        <time>2012-07-18T09:45:34Z</time>
      </trkpt>
      <trkpt lat="46.61349" lon="5.86996">
        <ele>692.28662109375</ele>
        <time>2012-07-18T09:45:46Z</time>
      </trkpt>
      <trkpt lat="46.61353" lon="5.86981">
        <ele>693.24780273438</ele>
        <time>2012-07-18T09:45:54Z</time>
      </trkpt>
      <trkpt lat="46.61353" lon="5.86975">
        <ele>694.20922851562</ele>
        <time>2012-07-18T09:45:57Z</time>
      </trkpt>
      <trkpt lat="46.61353" lon="5.8697">
        <ele>695.65112304688</ele>
        <time>2012-07-18T09:45:59Z</time>
      </trkpt>
      <trkpt lat="46.61355" lon="5.86951">
        <ele>700.4580078125</ele>
        <time>2012-07-18T09:46:07Z</time>
      </trkpt>
      <trkpt lat="46.61357" lon="5.86936">
        <ele>704.30322265625</ele>
        <time>2012-07-18T09:46:17Z</time>
      </trkpt>
      <trkpt lat="46.6136" lon="5.86932">
        <ele>705.26440429688</ele>
        <time>2012-07-18T09:46:23Z</time>
      </trkpt>
      <trkpt lat="46.61366" lon="5.86919">
        <ele>707.18701171875</ele>
        <time>2012-07-18T09:46:30Z</time>
      </trkpt>
      <trkpt lat="46.61375" lon="5.86912">
        <ele>709.10961914062</ele>
        <time>2012-07-18T09:46:40Z</time>
      </trkpt>
      <trkpt lat="46.61385" lon="5.86895">
        <ele>711.99365234375</ele>
        <time>2012-07-18T09:46:52Z</time>
      </trkpt>
      <trkpt lat="46.61394" lon="5.8688">
        <ele>711.99365234375</ele>
        <time>2012-07-18T09:47:03Z</time>
      </trkpt>
      <trkpt lat="46.614" lon="5.86874">
        <ele>713.435546875</ele>
        <time>2012-07-18T09:47:14Z</time>
      </trkpt>
      <trkpt lat="46.61405" lon="5.86869">
        <ele>715.35815429688</ele>
        <time>2012-07-18T09:47:44Z</time>
      </trkpt>
      <trkpt lat="46.61405" lon="5.86857">
        <ele>715.8388671875</ele>
        <time>2012-07-18T09:48:04Z</time>
      </trkpt>
      <trkpt lat="46.61413" lon="5.86842">
        <ele>717.76147460938</ele>
        <time>2012-07-18T09:48:37Z</time>
      </trkpt>
      <trkpt lat="46.61417" lon="5.86822">
        <ele>722.56811523438</ele>
        <time>2012-07-18T09:48:59Z</time>
      </trkpt>
      <trkpt lat="46.61422" lon="5.86807">
        <ele>724.01000976562</ele>
        <time>2012-07-18T09:49:10Z</time>
      </trkpt>
      <trkpt lat="46.61422" lon="5.86807">
        <ele>724.01000976562</ele>
        <time>2012-07-18T09:49:11Z</time>
      </trkpt>
      <trkpt lat="46.61426" lon="5.86801">
        <ele>725.45190429688</ele>
        <time>2012-07-18T09:49:17Z</time>
      </trkpt>
      <trkpt lat="46.61426" lon="5.86797">
        <ele>725.9326171875</ele>
        <time>2012-07-18T09:49:19Z</time>
      </trkpt>
      <trkpt lat="46.61428" lon="5.8679">
        <ele>725.45190429688</ele>
        <time>2012-07-18T09:49:27Z</time>
      </trkpt>
      <trkpt lat="46.61433" lon="5.86784">
        <ele>725.45190429688</ele>
        <time>2012-07-18T09:49:35Z</time>
      </trkpt>
      <trkpt lat="46.61441" lon="5.86771">
        <ele>724.49072265625</ele>
        <time>2012-07-18T09:49:47Z</time>
      </trkpt>
      <trkpt lat="46.61443" lon="5.8676">
        <ele>724.49072265625</ele>
        <time>2012-07-18T09:49:57Z</time>
      </trkpt>
      <trkpt lat="46.6145" lon="5.86739">
        <ele>724.01000976562</ele>
        <time>2012-07-18T09:50:09Z</time>
      </trkpt>
      <trkpt lat="46.6145" lon="5.86736">
        <ele>724.01000976562</ele>
        <time>2012-07-18T09:50:10Z</time>
      </trkpt>
      <trkpt lat="46.61448" lon="5.8673">
        <ele>724.01000976562</ele>
        <time>2012-07-18T09:50:13Z</time>
      </trkpt>
      <trkpt lat="46.61456" lon="5.86711">
        <ele>723.52954101562</ele>
        <time>2012-07-18T09:50:24Z</time>
      </trkpt>
      <trkpt lat="46.6146" lon="5.86704">
        <ele>724.49072265625</ele>
        <time>2012-07-18T09:50:28Z</time>
      </trkpt>
      <trkpt lat="46.61467" lon="5.86691">
        <ele>725.9326171875</ele>
        <time>2012-07-18T09:50:35Z</time>
      </trkpt>
      <trkpt lat="46.6148" lon="5.86674">
        <ele>724.49072265625</ele>
        <time>2012-07-18T09:50:46Z</time>
      </trkpt>
      <trkpt lat="46.6149" lon="5.86672">
        <ele>721.60668945312</ele>
        <time>2012-07-18T09:50:57Z</time>
      </trkpt>
      <trkpt lat="46.61497" lon="5.8667">
        <ele>718.72290039062</ele>
        <time>2012-07-18T09:51:08Z</time>
      </trkpt>
      <trkpt lat="46.61508" lon="5.86657">
        <ele>710.55151367188</ele>
        <time>2012-07-18T09:51:15Z</time>
      </trkpt>
      <trkpt lat="46.61508" lon="5.86657">
        <ele>704.30322265625</ele>
        <time>2012-07-18T09:51:36Z</time>
      </trkpt>
      <trkpt lat="46.61501" lon="5.86659">
        <ele>700.9384765625</ele>
        <time>2012-07-18T09:51:50Z</time>
      </trkpt>
      <trkpt lat="46.61497" lon="5.86651">
        <ele>698.53491210938</ele>
        <time>2012-07-18T09:52:02Z</time>
      </trkpt>
      <trkpt lat="46.61499" lon="5.86648">
        <ele>698.05444335938</ele>
        <time>2012-07-18T09:52:06Z</time>
      </trkpt>
      <trkpt lat="46.61503" lon="5.8664">
        <ele>696.61254882812</ele>
        <time>2012-07-18T09:52:19Z</time>
      </trkpt>
      <trkpt lat="46.61503" lon="5.86636">
        <ele>695.65112304688</ele>
        <time>2012-07-18T09:52:25Z</time>
      </trkpt>
      <trkpt lat="46.61503" lon="5.86625">
        <ele>693.728515625</ele>
        <time>2012-07-18T09:52:38Z</time>
      </trkpt>
      <trkpt lat="46.61503" lon="5.86629">
        <ele>693.24780273438</ele>
        <time>2012-07-18T09:52:49Z</time>
      </trkpt>
      <trkpt lat="46.61505" lon="5.86625">
        <ele>693.24780273438</ele>
        <time>2012-07-18T09:53:15Z</time>
      </trkpt>
      <trkpt lat="46.6151" lon="5.86631">
        <ele>695.17041015625</ele>
        <time>2012-07-18T09:54:02Z</time>
      </trkpt>
      <trkpt lat="46.61512" lon="5.86636">
        <ele>695.17041015625</ele>
        <time>2012-07-18T09:54:14Z</time>
      </trkpt>
      <trkpt lat="46.61505" lon="5.86625">
        <ele>685.55737304688</ele>
        <time>2012-07-18T09:54:26Z</time>
      </trkpt>
      <trkpt lat="46.61508" lon="5.86621">
        <ele>665.36962890625</ele>
        <time>2012-07-18T09:55:05Z</time>
      </trkpt>
      <trkpt lat="46.61497" lon="5.86612">
        <ele>668.25366210938</ele>
        <time>2012-07-18T09:55:29Z</time>
      </trkpt>
      <trkpt lat="46.61495" lon="5.86601">
        <ele>671.1376953125</ele>
        <time>2012-07-18T09:55:43Z</time>
      </trkpt>
      <trkpt lat="46.61495" lon="5.86588">
        <ele>674.98291015625</ele>
        <time>2012-07-18T09:55:55Z</time>
      </trkpt>
      <trkpt lat="46.61499" lon="5.86576">
        <ele>677.86669921875</ele>
        <time>2012-07-18T09:56:03Z</time>
      </trkpt>
      <trkpt lat="46.61503" lon="5.8656">
        <ele>681.2314453125</ele>
        <time>2012-07-18T09:56:12Z</time>
      </trkpt>
      <trkpt lat="46.61508" lon="5.86548">
        <ele>683.63452148438</ele>
        <time>2012-07-18T09:56:22Z</time>
      </trkpt>
      <trkpt lat="46.61505" lon="5.86545">
        <ele>683.63452148438</ele>
        <time>2012-07-18T09:56:23Z</time>
      </trkpt>
      <trkpt lat="46.61505" lon="5.86533">
        <ele>686.51879882812</ele>
        <time>2012-07-18T09:56:32Z</time>
      </trkpt>
      <trkpt lat="46.61503" lon="5.86511">
        <ele>689.40258789062</ele>
        <time>2012-07-18T09:56:47Z</time>
      </trkpt>
      <trkpt lat="46.61501" lon="5.86492">
        <ele>691.3251953125</ele>
        <time>2012-07-18T09:57:13Z</time>
      </trkpt>
      <trkpt lat="46.61505" lon="5.86483">
        <ele>692.28662109375</ele>
        <time>2012-07-18T09:57:23Z</time>
      </trkpt>
      <trkpt lat="46.61508" lon="5.86479">
        <ele>694.68969726562</ele>
        <time>2012-07-18T09:57:27Z</time>
      </trkpt>
      <trkpt lat="46.61512" lon="5.86468">
        <ele>696.61254882812</ele>
        <time>2012-07-18T09:57:31Z</time>
      </trkpt>
      <trkpt lat="46.61514" lon="5.8646">
        <ele>699.015625</ele>
        <time>2012-07-18T09:57:38Z</time>
      </trkpt>
      <trkpt lat="46.61514" lon="5.8646">
        <ele>699.015625</ele>
        <time>2012-07-18T09:57:39Z</time>
      </trkpt>
      <trkpt lat="46.61514" lon="5.86457">
        <ele>700.9384765625</ele>
        <time>2012-07-18T09:57:58Z</time>
      </trkpt>
      <trkpt lat="46.6151" lon="5.86462">
        <ele>700.9384765625</ele>
        <time>2012-07-18T09:58:11Z</time>
      </trkpt>
      <trkpt lat="46.61512" lon="5.8646">
        <ele>700.9384765625</ele>
        <time>2012-07-18T09:58:20Z</time>
      </trkpt>
      <trkpt lat="46.61516" lon="5.86451">
        <ele>700.9384765625</ele>
        <time>2012-07-18T09:58:30Z</time>
      </trkpt>
      <trkpt lat="46.61525" lon="5.86434">
        <ele>699.49633789062</ele>
        <time>2012-07-18T09:59:30Z</time>
      </trkpt>
      <trkpt lat="46.61527" lon="5.86427">
        <ele>699.49633789062</ele>
        <time>2012-07-18T09:59:38Z</time>
      </trkpt>
      <trkpt lat="46.61529" lon="5.86417">
        <ele>697.57373046875</ele>
        <time>2012-07-18T09:59:53Z</time>
      </trkpt>
      <trkpt lat="46.61531" lon="5.86389">
        <ele>699.49633789062</ele>
        <time>2012-07-18T10:01:00Z</time>
      </trkpt>
      <trkpt lat="46.61531" lon="5.86387">
        <ele>699.97705078125</ele>
        <time>2012-07-18T10:01:13Z</time>
      </trkpt>
      <trkpt lat="46.6154" lon="5.86374">
        <ele>704.78369140625</ele>
        <time>2012-07-18T10:01:29Z</time>
      </trkpt>
      <trkpt lat="46.6154" lon="5.86363">
        <ele>706.2255859375</ele>
        <time>2012-07-18T10:01:37Z</time>
      </trkpt>
      <trkpt lat="46.6154" lon="5.86357">
        <ele>705.7451171875</ele>
        <time>2012-07-18T10:01:44Z</time>
      </trkpt>
      <trkpt lat="46.6154" lon="5.8635">
        <ele>703.82250976562</ele>
        <time>2012-07-18T10:01:50Z</time>
      </trkpt>
      <trkpt lat="46.61542" lon="5.86335">
        <ele>697.09301757812</ele>
        <time>2012-07-18T10:01:56Z</time>
      </trkpt>
      <trkpt lat="46.61544" lon="5.86318">
        <ele>687.96069335938</ele>
        <time>2012-07-18T10:02:03Z</time>
      </trkpt>
      <trkpt lat="46.61544" lon="5.86312">
        <ele>683.63452148438</ele>
        <time>2012-07-18T10:02:08Z</time>
      </trkpt>
      <trkpt lat="46.61548" lon="5.86297">
        <ele>676.90551757812</ele>
        <time>2012-07-18T10:02:16Z</time>
      </trkpt>
      <trkpt lat="46.61551" lon="5.86297">
        <ele>676.4248046875</ele>
        <time>2012-07-18T10:02:17Z</time>
      </trkpt>
      <trkpt lat="46.61551" lon="5.86292">
        <ele>674.98291015625</ele>
        <time>2012-07-18T10:02:21Z</time>
      </trkpt>
      <trkpt lat="46.61546" lon="5.86282">
        <ele>670.65698242188</ele>
        <time>2012-07-18T10:02:31Z</time>
      </trkpt>
      <trkpt lat="46.61544" lon="5.86275">
        <ele>669.21508789062</ele>
        <time>2012-07-18T10:02:37Z</time>
      </trkpt>
      <trkpt lat="46.61536" lon="5.86267">
        <ele>666.33081054688</ele>
        <time>2012-07-18T10:02:47Z</time>
      </trkpt>
      <trkpt lat="46.61516" lon="5.8626">
        <ele>661.5244140625</ele>
        <time>2012-07-18T10:03:04Z</time>
      </trkpt>
      <trkpt lat="46.61503" lon="5.86249">
        <ele>657.19848632812</ele>
        <time>2012-07-18T10:03:20Z</time>
      </trkpt>
      <trkpt lat="46.61499" lon="5.86221">
        <ele>654.79516601562</ele>
        <time>2012-07-18T10:03:36Z</time>
      </trkpt>
      <trkpt lat="46.61497" lon="5.86183">
        <ele>644.220703125</ele>
        <time>2012-07-18T10:04:13Z</time>
      </trkpt>
      <trkpt lat="46.61501" lon="5.86164">
        <ele>641.33666992188</ele>
        <time>2012-07-18T10:04:24Z</time>
      </trkpt>
      <trkpt lat="46.61495" lon="5.86129">
        <ele>634.607421875</ele>
        <time>2012-07-18T10:04:48Z</time>
      </trkpt>
      <trkpt lat="46.61486" lon="5.86088">
        <ele>625.95556640625</ele>
        <time>2012-07-18T10:06:44Z</time>
      </trkpt>
      <trkpt lat="46.61484" lon="5.86084">
        <ele>626.9169921875</ele>
        <time>2012-07-18T10:06:59Z</time>
      </trkpt>
      <trkpt lat="46.6148" lon="5.86076">
        <ele>629.32006835938</ele>
        <time>2012-07-18T10:07:22Z</time>
      </trkpt>
      <trkpt lat="46.61475" lon="5.86052">
        <ele>636.04956054688</ele>
        <time>2012-07-18T10:07:37Z</time>
      </trkpt>
      <trkpt lat="46.61473" lon="5.86052">
        <ele>639.4140625</ele>
        <time>2012-07-18T10:08:00Z</time>
      </trkpt>
      <trkpt lat="46.61465" lon="5.8603">
        <ele>650.94970703125</ele>
        <time>2012-07-18T10:08:14Z</time>
      </trkpt>
      <trkpt lat="46.61452" lon="5.86026">
        <ele>657.19848632812</ele>
        <time>2012-07-18T10:08:25Z</time>
      </trkpt>
      <trkpt lat="46.61443" lon="5.86018">
        <ele>662.00512695312</ele>
        <time>2012-07-18T10:08:36Z</time>
      </trkpt>
      <trkpt lat="46.61439" lon="5.86007">
        <ele>665.36962890625</ele>
        <time>2012-07-18T10:08:52Z</time>
      </trkpt>
      <trkpt lat="46.61433" lon="5.86">
        <ele>665.36962890625</ele>
        <time>2012-07-18T10:09:02Z</time>
      </trkpt>
      <trkpt lat="46.61424" lon="5.85981">
        <ele>663.44702148438</ele>
        <time>2012-07-18T10:09:20Z</time>
      </trkpt>
      <trkpt lat="46.61424" lon="5.85977">
        <ele>662.48559570312</ele>
        <time>2012-07-18T10:09:24Z</time>
      </trkpt>
      <trkpt lat="46.61428" lon="5.85958">
        <ele>659.60180664062</ele>
        <time>2012-07-18T10:09:39Z</time>
      </trkpt>
      <trkpt lat="46.61422" lon="5.85949">
        <ele>658.64038085938</ele>
        <time>2012-07-18T10:09:46Z</time>
      </trkpt>
      <trkpt lat="46.61402" lon="5.8594">
        <ele>657.19848632812</ele>
        <time>2012-07-18T10:09:59Z</time>
      </trkpt>
      <trkpt lat="46.61392" lon="5.85912">
        <ele>654.31469726562</ele>
        <time>2012-07-18T10:10:40Z</time>
      </trkpt>
      <trkpt lat="46.61383" lon="5.85891">
        <ele>652.39184570312</ele>
        <time>2012-07-18T10:11:00Z</time>
      </trkpt>
      <trkpt lat="46.6137" lon="5.85876">
        <ele>648.06591796875</ele>
        <time>2012-07-18T10:11:18Z</time>
      </trkpt>
      <trkpt lat="46.61366" lon="5.85794">
        <ele>627.39770507812</ele>
        <time>2012-07-18T10:13:38Z</time>
      </trkpt>
      <trkpt lat="46.61364" lon="5.85773">
        <ele>624.03295898438</ele>
        <time>2012-07-18T10:13:58Z</time>
      </trkpt>
      <trkpt lat="46.61366" lon="5.85758">
        <ele>621.14916992188</ele>
        <time>2012-07-18T10:14:08Z</time>
      </trkpt>
      <trkpt lat="46.6137" lon="5.85713">
        <ele>615.86181640625</ele>
        <time>2012-07-18T10:14:58Z</time>
      </trkpt>
      <trkpt lat="46.61379" lon="5.85661">
        <ele>604.326171875</ele>
        <time>2012-07-18T10:15:44Z</time>
      </trkpt>
      <trkpt lat="46.61392" lon="5.85627">
        <ele>594.23217773438</ele>
        <time>2012-07-18T10:16:24Z</time>
      </trkpt>
      <trkpt lat="46.614" lon="5.8561">
        <ele>588.46435546875</ele>
        <time>2012-07-18T10:16:39Z</time>
      </trkpt>
      <trkpt lat="46.61398" lon="5.85606">
        <ele>586.06079101562</ele>
        <time>2012-07-18T10:16:44Z</time>
      </trkpt>
      <trkpt lat="46.61398" lon="5.85593">
        <ele>580.77368164062</ele>
        <time>2012-07-18T10:16:56Z</time>
      </trkpt>
      <trkpt lat="46.61398" lon="5.8558">
        <ele>578.37036132812</ele>
        <time>2012-07-18T10:17:02Z</time>
      </trkpt>
      <trkpt lat="46.614" lon="5.85569">
        <ele>583.1767578125</ele>
        <time>2012-07-18T10:17:11Z</time>
      </trkpt>
      <trkpt lat="46.614" lon="5.85565">
        <ele>584.13818359375</ele>
        <time>2012-07-18T10:17:14Z</time>
      </trkpt>
      <trkpt lat="46.614" lon="5.85554">
        <ele>585.580078125</ele>
        <time>2012-07-18T10:17:22Z</time>
      </trkpt>
      <trkpt lat="46.61398" lon="5.85543">
        <ele>587.02197265625</ele>
        <time>2012-07-18T10:17:26Z</time>
      </trkpt>
      <trkpt lat="46.61394" lon="5.85531">
        <ele>587.9833984375</ele>
        <time>2012-07-18T10:17:33Z</time>
      </trkpt>
      <trkpt lat="46.61394" lon="5.85528">
        <ele>587.9833984375</ele>
        <time>2012-07-18T10:17:34Z</time>
      </trkpt>
      <trkpt lat="46.61394" lon="5.85526">
        <ele>588.46435546875</ele>
        <time>2012-07-18T10:17:50Z</time>
      </trkpt>
      <trkpt lat="46.61409" lon="5.85535">
        <ele>586.54150390625</ele>
        <time>2012-07-18T10:19:21Z</time>
      </trkpt>
      <trkpt lat="46.61417" lon="5.85537">
        <ele>583.65747070312</ele>
        <time>2012-07-18T10:19:31Z</time>
      </trkpt>
      <trkpt lat="46.6143" lon="5.85522">
        <ele>573.56396484375</ele>
        <time>2012-07-18T10:19:51Z</time>
      </trkpt>
      <trkpt lat="46.61441" lon="5.85498">
        <ele>560.10522460938</ele>
        <time>2012-07-18T10:20:16Z</time>
      </trkpt>
      <trkpt lat="46.61456" lon="5.85479">
        <ele>544.24365234375</ele>
        <time>2012-07-18T10:20:50Z</time>
      </trkpt>
      <trkpt lat="46.61458" lon="5.8546">
        <ele>537.99499511719</ele>
        <time>2012-07-18T10:21:05Z</time>
      </trkpt>
      <trkpt lat="46.61458" lon="5.85432">
        <ele>535.11096191406</ele>
        <time>2012-07-18T10:21:24Z</time>
      </trkpt>
      <trkpt lat="46.61458" lon="5.85417">
        <ele>535.59155273438</ele>
        <time>2012-07-18T10:21:32Z</time>
      </trkpt>
      <trkpt lat="46.61458" lon="5.85404">
        <ele>537.99499511719</ele>
        <time>2012-07-18T10:21:42Z</time>
      </trkpt>
      <trkpt lat="46.61439" lon="5.85421">
        <ele>533.18835449219</ele>
        <time>2012-07-18T10:22:43Z</time>
      </trkpt>
      <trkpt lat="46.61439" lon="5.85428">
        <ele>530.30444335938</ele>
        <time>2012-07-18T10:22:51Z</time>
      </trkpt>
      <trkpt lat="46.61428" lon="5.85447">
        <ele>522.61389160156</ele>
        <time>2012-07-18T10:23:15Z</time>
      </trkpt>
      <trkpt lat="46.61417" lon="5.85421">
        <ele>509.63610839844</ele>
        <time>2012-07-18T10:24:14Z</time>
      </trkpt>
      <trkpt lat="46.61417" lon="5.85408">
        <ele>508.67468261719</ele>
        <time>2012-07-18T10:24:30Z</time>
      </trkpt>
      <trkpt lat="46.61409" lon="5.85421">
        <ele>502.42614746094</ele>
        <time>2012-07-18T10:24:58Z</time>
      </trkpt>
      <trkpt lat="46.61411" lon="5.854">
        <ele>502.90673828125</ele>
        <time>2012-07-18T10:25:10Z</time>
      </trkpt>
      <trkpt lat="46.61411" lon="5.85387">
        <ele>504.82946777344</ele>
        <time>2012-07-18T10:25:17Z</time>
      </trkpt>
      <trkpt lat="46.61409" lon="5.8537">
        <ele>506.271484375</ele>
        <time>2012-07-18T10:25:28Z</time>
      </trkpt>
      <trkpt lat="46.61396" lon="5.85359">
        <ele>508.19409179688</ele>
        <time>2012-07-18T10:26:22Z</time>
      </trkpt>
      <trkpt lat="46.61402" lon="5.85372">
        <ele>510.11669921875</ele>
        <time>2012-07-18T10:26:56Z</time>
      </trkpt>
      <trkpt lat="46.61396" lon="5.85387">
        <ele>513.4814453125</ele>
        <time>2012-07-18T10:27:11Z</time>
      </trkpt>
      <trkpt lat="46.614" lon="5.85355">
        <ele>516.84594726562</ele>
        <time>2012-07-18T10:29:56Z</time>
      </trkpt>
      <trkpt lat="46.61377" lon="5.85363">
        <ele>523.09460449219</ele>
        <time>2012-07-18T10:30:48Z</time>
      </trkpt>
      <trkpt lat="46.6137" lon="5.85367">
        <ele>527.42041015625</ele>
        <time>2012-07-18T10:31:08Z</time>
      </trkpt>
      <trkpt lat="46.61385" lon="5.8535">
        <ele>534.63037109375</ele>
        <time>2012-07-18T10:31:56Z</time>
      </trkpt>
    </trkseg>
  </trk>
</gpx>